Terminal Aerodrome Forecast
Issued by NWS Flagstaff, AZ

Home | Current Version | Previous Version | Text Only | Print | Product List | Glossary On
Versions: 1 2 3 4 5 6 7 8 9 10 11 12 13 14 15 16 17 18 19
000
FTUS45 KFGZ 010000 AAA
TAFFLG
TAF AMD
KFLG 010051Z 0101/0124 06007KT P6SM VCSH SCT025 BKN050
     FM010200 07004KT P6SM FEW025 SCT050 SCT150
     FM010700 VRB03KT 1SM BR OVC004
     FM011600 VRB03KT P6SM SCT020=

USA.gov is the U.S. government's official web portal to all federal, state and local government web resources and services.